sensor_id;sensor_type;location;lat;lon;timestamp;temperature;humidity
29803;DHT22;16702;50.898;4.662;2024-01-30T00:01:19;11.00;99.90
29803;DHT22;16702;50.898;4.662;2024-01-30T00:03:50;11.00;99.90
29803;DHT22;16702;50.898;4.662;2024-01-30T00:06:21;11.00;99.90
29803;DHT22;16702;50.898;4.662;2024-01-30T00:08:54;11.00;99.90
29803;DHT22;16702;50.898;4.662;2024-01-30T00:11:25;10.90;99.90
29803;DHT22;16702;50.898;4.662;2024-01-30T00:13:56;11.00;99.90
29803;DHT22;16702;50.898;4.662;2024-01-30T00:16:27;11.00;99.90
29803;DHT22;16702;50.898;4.662;2024-01-30T00:18:58;11.00;99.90
29803;DHT22;16702;50.898;4.662;2024-01-30T00:21:30;11.00;99.90
29803;DHT22;16702;50.898;4.662;2024-01-30T00:24:04;11.00;99.90
29803;DHT22;16702;50.898;4.662;2024-01-30T00:26:34;11.10;99.90
29803;DHT22;16702;50.898;4.662;2024-01-30T00:29:05;11.00;99.90
29803;DHT22;16702;50.898;4.662;2024-01-30T00:31:36;11.10;99.90
29803;DHT22;16702;50.898;4.662;2024-01-30T00:34:08;11.00;99.90
29803;DHT22;16702;50.898;4.662;2024-01-30T00:36:39;11.00;99.90
29803;DHT22;16702;50.898;4.662;2024-01-30T00:39:12;11.10;99.90
29803;DHT22;16702;50.898;4.662;2024-01-30T00:41:43;11.10;99.90
29803;DHT22;16702;50.898;4.662;2024-01-30T00:44:14;11.00;99.90
29803;DHT22;16702;50.898;4.662;2024-01-30T00:46:45;11.10;99.90
29803;DHT22;16702;50.898;4.662;2024-01-30T00:49:15;11.00;99.90
29803;DHT22;16702;50.898;4.662;2024-01-30T00:51:46;11.10;99.90
29803;DHT22;16702;50.898;4.662;2024-01-30T00:54:20;11.10;99.90
29803;DHT22;16702;50.898;4.662;2024-01-30T00:56:50;11.00;99.90
29803;DHT22;16702;50.898;4.662;2024-01-30T00:59:21;11.10;99.90
29803;DHT22;16702;50.898;4.662;2024-01-30T01:01:52;11.00;99.90
29803;DHT22;16702;50.898;4.662;2024-01-30T01:04:23;11.10;99.90
29803;DHT22;16702;50.898;4.662;2024-01-30T01:06:54;11.10;99.90
29803;DHT22;16702;50.898;4.662;2024-01-30T01:09:28;11.10;99.90
29803;DHT22;16702;50.898;4.662;2024-01-30T01:11:58;11.10;99.90
29803;DHT22;16702;50.898;4.662;2024-01-30T01:14:29;11.10;99.90
29803;DHT22;16702;50.898;4.662;2024-01-30T01:17:00;11.10;99.90
29803;DHT22;16702;50.898;4.662;2024-01-30T01:19:31;11.00;99.90
29803;DHT22;16702;50.898;4.662;2024-01-30T01:22:02;11.10;99.90
29803;DHT22;16702;50.898;4.662;2024-01-30T01:24:36;11.10;99.90
29803;DHT22;16702;50.898;4.662;2024-01-30T01:27:07;11.10;99.90
29803;DHT22;16702;50.898;4.662;2024-01-30T01:29:38;11.10;99.90
29803;DHT22;16702;50.898;4.662;2024-01-30T01:32:08;11.10;99.90
29803;DHT22;16702;50.898;4.662;2024-01-30T01:34:39;11.10;99.90
29803;DHT22;16702;50.898;4.662;2024-01-30T01:37:10;11.10;99.90
29803;DHT22;16702;50.898;4.662;2024-01-30T01:39:44;11.10;99.90
29803;DHT22;16702;50.898;4.662;2024-01-30T01:42:14;11.10;99.90
29803;DHT22;16702;50.898;4.662;2024-01-30T01:44:45;11.10;99.90
29803;DHT22;16702;50.898;4.662;2024-01-30T01:47:16;11.10;99.90
29803;DHT22;16702;50.898;4.662;2024-01-30T01:49:47;11.10;99.90
29803;DHT22;16702;50.898;4.662;2024-01-30T01:52:18;11.10;99.90
29803;DHT22;16702;50.898;4.662;2024-01-30T01:54:52;11.10;99.90
29803;DHT22;16702;50.898;4.662;2024-01-30T01:57:23;11.10;99.90
29803;DHT22;16702;50.898;4.662;2024-01-30T01:59:54;11.10;99.90
29803;DHT22;16702;50.898;4.662;2024-01-30T02:02:25;11.10;99.90
29803;DHT22;16702;50.898;4.662;2024-01-30T02:04:57;11.00;99.90
29803;DHT22;16702;50.898;4.662;2024-01-30T02:07:28;11.10;99.90
29803;DHT22;16702;50.898;4.662;2024-01-30T02:10:02;11.20;99.90
29803;DHT22;16702;50.898;4.662;2024-01-30T02:12:34;11.10;99.90
29803;DHT22;16702;50.898;4.662;2024-01-30T02:15:05;11.10;99.90
29803;DHT22;16702;50.898;4.662;2024-01-30T02:17:36;11.10;99.90
29803;DHT22;16702;50.898;4.662;2024-01-30T02:20:07;11.10;99.90
29803;DHT22;16702;50.898;4.662;2024-01-30T02:22:41;11.10;99.90
29803;DHT22;16702;50.898;4.662;2024-01-30T02:25:13;11.10;99.90
29803;DHT22;16702;50.898;4.662;2024-01-30T02:27:43;11.10;99.90
29803;DHT22;16702;50.898;4.662;2024-01-30T02:30:14;11.10;99.90
29803;DHT22;16702;50.898;4.662;2024-01-30T02:32:45;11.10;99.90
29803;DHT22;16702;50.898;4.662;2024-01-30T02:35:15;11.10;99.90
29803;DHT22;16702;50.898;4.662;2024-01-30T02:37:48;11.10;99.90
29803;DHT22;16702;50.898;4.662;2024-01-30T02:40:19;11.10;99.90
29803;DHT22;16702;50.898;4.662;2024-01-30T02:42:50;11.10;99.90
29803;DHT22;16702;50.898;4.662;2024-01-30T02:45:20;11.10;99.90
29803;DHT22;16702;50.898;4.662;2024-01-30T02:47:51;11.10;99.90
29803;DHT22;16702;50.898;4.662;2024-01-30T02:50:22;11.10;99.90
29803;DHT22;16702;50.898;4.662;2024-01-30T02:52:55;11.10;99.90
29803;DHT22;16702;50.898;4.662;2024-01-30T02:55:26;11.10;99.90
29803;DHT22;16702;50.898;4.662;2024-01-30T02:57:56;11.10;99.90
29803;DHT22;16702;50.898;4.662;2024-01-30T03:00:27;11.10;99.90
29803;DHT22;16702;50.898;4.662;2024-01-30T03:02:58;11.10;99.90
29803;DHT22;16702;50.898;4.662;2024-01-30T03:05:29;11.10;99.90
29803;DHT22;16702;50.898;4.662;2024-01-30T03:08:04;11.10;99.90
29803;DHT22;16702;50.898;4.662;2024-01-30T03:10:35;11.10;99.90
29803;DHT22;16702;50.898;4.662;2024-01-30T03:13:05;11.10;99.90
29803;DHT22;16702;50.898;4.662;2024-01-30T03:15:36;11.10;99.90
29803;DHT22;16702;50.898;4.662;2024-01-30T03:18:07;11.10;99.90
29803;DHT22;16702;50.898;4.662;2024-01-30T03:20:37;11.10;99.90
29803;DHT22;16702;50.898;4.662;2024-01-30T03:23:11;11.10;99.90
29803;DHT22;16702;50.898;4.662;2024-01-30T03:25:41;11.10;99.90
29803;DHT22;16702;50.898;4.662;2024-01-30T03:28:12;11.20;99.90
29803;DHT22;16702;50.898;4.662;2024-01-30T03:30:43;11.10;99.90
29803;DHT22;16702;50.898;4.662;2024-01-30T03:33:14;11.10;99.90
29803;DHT22;16702;50.898;4.662;2024-01-30T03:35:44;11.20;99.90
29803;DHT22;16702;50.898;4.662;2024-01-30T03:38:17;11.10;99.90
29803;DHT22;16702;50.898;4.662;2024-01-30T03:40:48;11.20;99.90
29803;DHT22;16702;50.898;4.662;2024-01-30T03:43:18;11.20;99.90
29803;DHT22;16702;50.898;4.662;2024-01-30T03:45:49;11.20;99.90
29803;DHT22;16702;50.898;4.662;2024-01-30T03:48:21;11.20;99.90
29803;DHT22;16702;50.898;4.662;2024-01-30T03:50:53;11.10;99.90
29803;DHT22;16702;50.898;4.662;2024-01-30T03:53:26;11.20;99.90
29803;DHT22;16702;50.898;4.662;2024-01-30T03:55:56;11.10;99.90
29803;DHT22;16702;50.898;4.662;2024-01-30T03:58:27;11.20;99.90
29803;DHT22;16702;50.898;4.662;2024-01-30T04:00:57;11.20;99.90
29803;DHT22;16702;50.898;4.662;2024-01-30T04:03:28;11.20;99.90
29803;DHT22;16702;50.898;4.662;2024-01-30T04:05:59;11.20;99.90
29803;DHT22;16702;50.898;4.662;2024-01-30T04:08:32;11.20;99.90
29803;DHT22;16702;50.898;4.662;2024-01-30T04:11:04;11.20;99.90
29803;DHT22;16702;50.898;4.662;2024-01-30T04:13:34;11.20;99.90
29803;DHT22;16702;50.898;4.662;2024-01-30T04:16:06;11.20;99.90
29803;DHT22;16702;50.898;4.662;2024-01-30T04:18:37;11.20;99.90
29803;DHT22;16702;50.898;4.662;2024-01-30T04:21:07;11.20;99.90
29803;DHT22;16702;50.898;4.662;2024-01-30T04:23:41;11.20;99.90
29803;DHT22;16702;50.898;4.662;2024-01-30T04:26:12;11.20;99.90
29803;DHT22;16702;50.898;4.662;2024-01-30T04:28:43;11.20;99.90
29803;DHT22;16702;50.898;4.662;2024-01-30T04:31:14;11.20;99.90
29803;DHT22;16702;50.898;4.662;2024-01-30T04:33:45;11.20;99.90
29803;DHT22;16702;50.898;4.662;2024-01-30T04:36:15;11.20;99.90
29803;DHT22;16702;50.898;4.662;2024-01-30T04:38:49;11.20;99.90
29803;DHT22;16702;50.898;4.662;2024-01-30T04:41:19;11.20;99.90
29803;DHT22;16702;50.898;4.662;2024-01-30T04:43:49;11.20;99.90
29803;DHT22;16702;50.898;4.662;2024-01-30T04:46:20;11.20;99.90
29803;DHT22;16702;50.898;4.662;2024-01-30T04:48:51;11.20;99.90
29803;DHT22;16702;50.898;4.662;2024-01-30T04:51:21;11.20;99.90
29803;DHT22;16702;50.898;4.662;2024-01-30T04:53:54;11.20;99.90
29803;DHT22;16702;50.898;4.662;2024-01-30T04:56:25;11.20;99.90
29803;DHT22;16702;50.898;4.662;2024-01-30T04:58:56;11.20;99.90
29803;DHT22;16702;50.898;4.662;2024-01-30T05:01:26;11.20;99.90
29803;DHT22;16702;50.898;4.662;2024-01-30T05:03:57;11.20;99.90
29803;DHT22;16702;50.898;4.662;2024-01-30T05:06:28;11.20;99.90
29803;DHT22;16702;50.898;4.662;2024-01-30T05:09:01;11.20;99.90
29803;DHT22;16702;50.898;4.662;2024-01-30T05:11:37;11.20;99.90
29803;DHT22;16702;50.898;4.662;2024-01-30T05:14:08;11.20;99.90
29803;DHT22;16702;50.898;4.662;2024-01-30T05:16:39;11.20;99.90
29803;DHT22;16702;50.898;4.662;2024-01-30T05:19:10;11.20;99.90
29803;DHT22;16702;50.898;4.662;2024-01-30T05:21:41;11.30;99.90
29803;DHT22;16702;50.898;4.662;2024-01-30T05:24:14;11.20;99.90
29803;DHT22;16702;50.898;4.662;2024-01-30T05:26:47;11.20;99.90
29803;DHT22;16702;50.898;4.662;2024-01-30T05:29:18;11.20;99.90
29803;DHT22;16702;50.898;4.662;2024-01-30T05:31:49;11.30;99.90
29803;DHT22;16702;50.898;4.662;2024-01-30T05:34:20;11.30;99.90
29803;DHT22;16702;50.898;4.662;2024-01-30T05:36:50;11.20;99.90
29803;DHT22;16702;50.898;4.662;2024-01-30T05:39:24;11.30;99.90
29803;DHT22;16702;50.898;4.662;2024-01-30T05:41:54;11.20;99.90
29803;DHT22;16702;50.898;4.662;2024-01-30T05:44:25;11.30;99.90
29803;DHT22;16702;50.898;4.662;2024-01-30T05:46:55;11.30;99.90
29803;DHT22;16702;50.898;4.662;2024-01-30T05:49:26;11.20;99.90
29803;DHT22;16702;50.898;4.662;2024-01-30T05:51:56;11.20;99.90
29803;DHT22;16702;50.898;4.662;2024-01-30T05:54:30;11.20;99.90
29803;DHT22;16702;50.898;4.662;2024-01-30T05:57:00;11.20;99.90
29803;DHT22;16702;50.898;4.662;2024-01-30T05:59:31;11.20;99.90
29803;DHT22;16702;50.898;4.662;2024-01-30T06:02:07;11.20;99.90
29803;DHT22;16702;50.898;4.662;2024-01-30T06:04:38;11.30;99.90
29803;DHT22;16702;50.898;4.662;2024-01-30T06:07:09;11.20;99.90
29803;DHT22;16702;50.898;4.662;2024-01-30T06:09:42;11.20;99.90
29803;DHT22;16702;50.898;4.662;2024-01-30T06:12:14;11.30;99.90
29803;DHT22;16702;50.898;4.662;2024-01-30T06:14:44;11.20;99.90
29803;DHT22;16702;50.898;4.662;2024-01-30T06:17:15;11.30;99.90
29803;DHT22;16702;50.898;4.662;2024-01-30T06:19:45;11.30;99.90
29803;DHT22;16702;50.898;4.662;2024-01-30T06:22:16;11.20;99.90
29803;DHT22;16702;50.898;4.662;2024-01-30T06:24:50;11.30;99.90
29803;DHT22;16702;50.898;4.662;2024-01-30T06:27:20;11.20;99.90
29803;DHT22;16702;50.898;4.662;2024-01-30T06:29:51;11.20;99.90
29803;DHT22;16702;50.898;4.662;2024-01-30T06:32:21;11.20;99.90
29803;DHT22;16702;50.898;4.662;2024-01-30T06:34:52;11.20;99.90
29803;DHT22;16702;50.898;4.662;2024-01-30T06:37:22;11.20;99.90
29803;DHT22;16702;50.898;4.662;2024-01-30T06:39:56;11.20;99.90
29803;DHT22;16702;50.898;4.662;2024-01-30T06:42:26;11.20;99.90
29803;DHT22;16702;50.898;4.662;2024-01-30T06:44:57;11.20;99.90
29803;DHT22;16702;50.898;4.662;2024-01-30T06:47:27;11.20;99.90
29803;DHT22;16702;50.898;4.662;2024-01-30T06:49:59;11.20;99.90
29803;DHT22;16702;50.898;4.662;2024-01-30T06:52:31;11.20;99.90
29803;DHT22;16702;50.898;4.662;2024-01-30T06:55:04;11.20;99.90
29803;DHT22;16702;50.898;4.662;2024-01-30T06:57:35;11.20;99.90
29803;DHT22;16702;50.898;4.662;2024-01-30T07:00:07;11.20;99.90
29803;DHT22;16702;50.898;4.662;2024-01-30T07:02:38;11.20;99.90
29803;DHT22;16702;50.898;4.662;2024-01-30T07:05:08;11.20;99.90
29803;DHT22;16702;50.898;4.662;2024-01-30T07:07:39;11.20;99.90
29803;DHT22;16702;50.898;4.662;2024-01-30T07:10:12;11.20;99.90
29803;DHT22;16702;50.898;4.662;2024-01-30T07:12:43;11.20;99.90
29803;DHT22;16702;50.898;4.662;2024-01-30T07:15:13;11.20;99.90
29803;DHT22;16702;50.898;4.662;2024-01-30T07:17:47;11.20;99.90
29803;DHT22;16702;50.898;4.662;2024-01-30T07:20:18;11.20;99.90
29803;DHT22;16702;50.898;4.662;2024-01-30T07:22:49;11.20;99.90
29803;DHT22;16702;50.898;4.662;2024-01-30T07:25:22;11.20;99.90
29803;DHT22;16702;50.898;4.662;2024-01-30T07:27:54;11.20;99.90
29803;DHT22;16702;50.898;4.662;2024-01-30T07:30:25;11.10;99.90
29803;DHT22;16702;50.898;4.662;2024-01-30T07:32:56;11.20;99.90
29803;DHT22;16702;50.898;4.662;2024-01-30T07:35:26;11.20;99.90
29803;DHT22;16702;50.898;4.662;2024-01-30T07:37:57;11.10;99.90
29803;DHT22;16702;50.898;4.662;2024-01-30T07:40:30;11.10;99.90
29803;DHT22;16702;50.898;4.662;2024-01-30T07:43:01;11.10;99.90
29803;DHT22;16702;50.898;4.662;2024-01-30T07:45:31;11.10;99.90
29803;DHT22;16702;50.898;4.662;2024-01-30T07:48:03;11.20;99.90
29803;DHT22;16702;50.898;4.662;2024-01-30T07:50:33;11.10;99.90
29803;DHT22;16702;50.898;4.662;2024-01-30T07:53:04;11.10;99.90
29803;DHT22;16702;50.898;4.662;2024-01-30T07:55:37;11.10;99.90
29803;DHT22;16702;50.898;4.662;2024-01-30T07:58:14;11.10;99.90
29803;DHT22;16702;50.898;4.662;2024-01-30T08:00:45;11.20;99.90
29803;DHT22;16702;50.898;4.662;2024-01-30T08:03:16;11.20;99.90
29803;DHT22;16702;50.898;4.662;2024-01-30T08:05:46;11.20;99.90
29803;DHT22;16702;50.898;4.662;2024-01-30T08:08:17;11.20;99.90
29803;DHT22;16702;50.898;4.662;2024-01-30T08:10:50;11.20;99.90
29803;DHT22;16702;50.898;4.662;2024-01-30T08:13:21;11.20;99.90
29803;DHT22;16702;50.898;4.662;2024-01-30T08:15:52;11.20;99.90
29803;DHT22;16702;50.898;4.662;2024-01-30T08:18:23;11.20;99.90
29803;DHT22;16702;50.898;4.662;2024-01-30T08:20:54;11.20;99.90
29803;DHT22;16702;50.898;4.662;2024-01-30T08:23:25;11.20;99.90
29803;DHT22;16702;50.898;4.662;2024-01-30T08:25:58;11.20;99.90
29803;DHT22;16702;50.898;4.662;2024-01-30T08:28:29;11.20;99.90
29803;DHT22;16702;50.898;4.662;2024-01-30T08:30:59;11.20;99.90
29803;DHT22;16702;50.898;4.662;2024-01-30T08:33:30;11.20;99.90
29803;DHT22;16702;50.898;4.662;2024-01-30T08:36:01;11.20;99.90
29803;DHT22;16702;50.898;4.662;2024-01-30T08:38:32;11.30;99.90
29803;DHT22;16702;50.898;4.662;2024-01-30T08:41:05;11.20;99.90
29803;DHT22;16702;50.898;4.662;2024-01-30T08:43:35;11.30;99.90
29803;DHT22;16702;50.898;4.662;2024-01-30T08:46:06;11.30;99.90
29803;DHT22;16702;50.898;4.662;2024-01-30T08:48:37;11.30;99.90
29803;DHT22;16702;50.898;4.662;2024-01-30T08:51:07;11.30;99.90
29803;DHT22;16702;50.898;4.662;2024-01-30T08:53:38;11.30;99.90
29803;DHT22;16702;50.898;4.662;2024-01-30T08:56:12;11.30;99.90
29803;DHT22;16702;50.898;4.662;2024-01-30T08:58:44;11.40;99.90
29803;DHT22;16702;50.898;4.662;2024-01-30T09:01:15;11.40;99.90
29803;DHT22;16702;50.898;4.662;2024-01-30T09:03:45;11.40;99.90
29803;DHT22;16702;50.898;4.662;2024-01-30T09:06:16;11.50;99.90
29803;DHT22;16702;50.898;4.662;2024-01-30T09:08:47;11.50;99.90
29803;DHT22;16702;50.898;4.662;2024-01-30T09:11:20;11.50;99.90
29803;DHT22;16702;50.898;4.662;2024-01-30T09:13:50;11.50;99.90
29803;DHT22;16702;50.898;4.662;2024-01-30T09:16:21;11.50;99.90
29803;DHT22;16702;50.898;4.662;2024-01-30T09:18:52;11.40;99.90
29803;DHT22;16702;50.898;4.662;2024-01-30T09:21:22;11.50;99.90
29803;DHT22;16702;50.898;4.662;2024-01-30T09:23:54;11.40;99.90
29803;DHT22;16702;50.898;4.662;2024-01-30T09:26:27;11.40;99.90
29803;DHT22;16702;50.898;4.662;2024-01-30T09:28:58;11.50;99.90
29803;DHT22;16702;50.898;4.662;2024-01-30T09:31:29;11.50;99.90
29803;DHT22;16702;50.898;4.662;2024-01-30T09:34:00;11.50;99.90
29803;DHT22;16702;50.898;4.662;2024-01-30T09:36:31;11.50;99.90
29803;DHT22;16702;50.898;4.662;2024-01-30T09:39:02;11.50;99.90
29803;DHT22;16702;50.898;4.662;2024-01-30T09:41:43;11.50;99.90
29803;DHT22;16702;50.898;4.662;2024-01-30T09:44:16;11.50;99.90
29803;DHT22;16702;50.898;4.662;2024-01-30T09:46:47;11.50;99.90
29803;DHT22;16702;50.898;4.662;2024-01-30T09:49:19;11.60;99.90
29803;DHT22;16702;50.898;4.662;2024-01-30T09:51:52;11.60;99.90
29803;DHT22;16702;50.898;4.662;2024-01-30T09:54:23;11.60;99.90
29803;DHT22;16702;50.898;4.662;2024-01-30T09:56:56;11.60;99.90
29803;DHT22;16702;50.898;4.662;2024-01-30T09:59:27;11.60;99.90
29803;DHT22;16702;50.898;4.662;2024-01-30T10:01:58;11.60;99.90
29803;DHT22;16702;50.898;4.662;2024-01-30T10:04:28;11.70;99.90
29803;DHT22;16702;50.898;4.662;2024-01-30T10:07:02;11.70;99.90
29803;DHT22;16702;50.898;4.662;2024-01-30T10:09:32;11.70;99.90
29803;DHT22;16702;50.898;4.662;2024-01-30T10:12:07;11.70;99.90
29803;DHT22;16702;50.898;4.662;2024-01-30T10:14:39;11.70;99.90
29803;DHT22;16702;50.898;4.662;2024-01-30T10:17:10;11.70;99.90
29803;DHT22;16702;50.898;4.662;2024-01-30T10:19:54;11.70;99.90
29803;DHT22;16702;50.898;4.662;2024-01-30T10:22:26;11.70;99.90
29803;DHT22;16702;50.898;4.662;2024-01-30T10:24:57;11.70;99.90
29803;DHT22;16702;50.898;4.662;2024-01-30T10:27:35;11.80;99.90
29803;DHT22;16702;50.898;4.662;2024-01-30T10:30:07;11.80;99.90
29803;DHT22;16702;50.898;4.662;2024-01-30T10:32:38;11.80;99.90
29803;DHT22;16702;50.898;4.662;2024-01-30T10:35:08;11.80;99.90
29803;DHT22;16702;50.898;4.662;2024-01-30T10:37:39;11.80;99.90
29803;DHT22;16702;50.898;4.662;2024-01-30T10:40:13;11.80;99.90
29803;DHT22;16702;50.898;4.662;2024-01-30T10:42:47;11.80;99.90
29803;DHT22;16702;50.898;4.662;2024-01-30T10:45:18;11.90;99.90
29803;DHT22;16702;50.898;4.662;2024-01-30T10:47:50;11.90;99.90
29803;DHT22;16702;50.898;4.662;2024-01-30T10:50:21;11.90;99.90
29803;DHT22;16702;50.898;4.662;2024-01-30T10:52:54;11.90;99.90
29803;DHT22;16702;50.898;4.662;2024-01-30T10:55:27;11.90;99.90
29803;DHT22;16702;50.898;4.662;2024-01-30T10:58:01;11.90;99.90
29803;DHT22;16702;50.898;4.662;2024-01-30T11:00:32;11.90;99.90
29803;DHT22;16702;50.898;4.662;2024-01-30T11:03:04;11.90;99.90
29803;DHT22;16702;50.898;4.662;2024-01-30T11:05:35;11.90;99.90
29803;DHT22;16702;50.898;4.662;2024-01-30T11:08:12;11.90;99.90
29803;DHT22;16702;50.898;4.662;2024-01-30T11:10:46;11.90;99.90
29803;DHT22;16702;50.898;4.662;2024-01-30T11:13:20;11.90;99.90
29803;DHT22;16702;50.898;4.662;2024-01-30T11:15:50;11.90;99.90
29803;DHT22;16702;50.898;4.662;2024-01-30T11:18:25;11.90;99.90
29803;DHT22;16702;50.898;4.662;2024-01-30T11:20:56;12.00;99.90
29803;DHT22;16702;50.898;4.662;2024-01-30T11:23:30;11.90;99.90
29803;DHT22;16702;50.898;4.662;2024-01-30T11:26:01;12.00;99.90
29803;DHT22;16702;50.898;4.662;2024-01-30T11:28:38;12.00;99.90
29803;DHT22;16702;50.898;4.662;2024-01-30T11:31:08;12.00;99.90
29803;DHT22;16702;50.898;4.662;2024-01-30T11:33:40;12.00;99.90
29803;DHT22;16702;50.898;4.662;2024-01-30T11:36:13;11.90;99.90
29803;DHT22;16702;50.898;4.662;2024-01-30T11:38:45;11.90;99.90
29803;DHT22;16702;50.898;4.662;2024-01-30T11:41:16;11.90;99.90
29803;DHT22;16702;50.898;4.662;2024-01-30T11:43:54;11.90;99.90
29803;DHT22;16702;50.898;4.662;2024-01-30T11:46:25;11.80;99.90
29803;DHT22;16702;50.898;4.662;2024-01-30T11:48:56;11.90;99.90
29803;DHT22;16702;50.898;4.662;2024-01-30T11:51:27;11.90;99.90
29803;DHT22;16702;50.898;4.662;2024-01-30T11:53:58;12.00;99.90
29803;DHT22;16702;50.898;4.662;2024-01-30T11:56:28;12.00;99.90
29803;DHT22;16702;50.898;4.662;2024-01-30T11:59:02;12.00;99.90
29803;DHT22;16702;50.898;4.662;2024-01-30T12:01:32;11.90;99.90
29803;DHT22;16702;50.898;4.662;2024-01-30T12:04:04;11.90;99.90
29803;DHT22;16702;50.898;4.662;2024-01-30T12:06:38;11.80;99.90
29803;DHT22;16702;50.898;4.662;2024-01-30T12:09:09;11.80;99.90
29803;DHT22;16702;50.898;4.662;2024-01-30T12:11:44;11.80;99.90
29803;DHT22;16702;50.898;4.662;2024-01-30T12:14:18;11.80;99.90
29803;DHT22;16702;50.898;4.662;2024-01-30T12:16:50;11.80;99.90
29803;DHT22;16702;50.898;4.662;2024-01-30T12:19:24;11.90;99.90
29803;DHT22;16702;50.898;4.662;2024-01-30T12:21:56;11.90;99.90
29803;DHT22;16702;50.898;4.662;2024-01-30T12:24:27;12.00;99.90
29803;DHT22;16702;50.898;4.662;2024-01-30T12:26:58;11.90;99.90
29803;DHT22;16702;50.898;4.662;2024-01-30T12:29:35;12.00;99.90
29803;DHT22;16702;50.898;4.662;2024-01-30T12:32:07;12.00;99.90
29803;DHT22;16702;50.898;4.662;2024-01-30T12:34:40;12.00;99.90
29803;DHT22;16702;50.898;4.662;2024-01-30T12:37:26;11.90;99.90
29803;DHT22;16702;50.898;4.662;2024-01-30T12:39:57;11.90;99.90
29803;DHT22;16702;50.898;4.662;2024-01-30T12:42:28;11.70;99.90
29803;DHT22;16702;50.898;4.662;2024-01-30T12:45:02;11.80;99.90
29803;DHT22;16702;50.898;4.662;2024-01-30T12:47:33;11.70;99.90
29803;DHT22;16702;50.898;4.662;2024-01-30T12:50:03;11.80;99.90
29803;DHT22;16702;50.898;4.662;2024-01-30T12:52:35;11.90;99.90
29803;DHT22;16702;50.898;4.662;2024-01-30T12:55:06;12.00;99.90
29803;DHT22;16702;50.898;4.662;2024-01-30T12:57:38;12.10;99.90
29803;DHT22;16702;50.898;4.662;2024-01-30T13:00:12;12.20;99.90
29803;DHT22;16702;50.898;4.662;2024-01-30T13:02:45;12.30;99.90
29803;DHT22;16702;50.898;4.662;2024-01-30T13:05:15;12.40;99.90
29803;DHT22;16702;50.898;4.662;2024-01-30T13:07:46;12.50;99.90
29803;DHT22;16702;50.898;4.662;2024-01-30T13:10:17;12.50;99.90
29803;DHT22;16702;50.898;4.662;2024-01-30T13:12:48;12.50;99.90
29803;DHT22;16702;50.898;4.662;2024-01-30T13:15:21;12.30;99.90
29803;DHT22;16702;50.898;4.662;2024-01-30T13:17:52;12.30;99.90
29803;DHT22;16702;50.898;4.662;2024-01-30T13:20:23;12.20;99.90
29803;DHT22;16702;50.898;4.662;2024-01-30T13:22:53;12.30;99.90
29803;DHT22;16702;50.898;4.662;2024-01-30T13:25:24;12.30;99.90
29803;DHT22;16702;50.898;4.662;2024-01-30T13:27:55;12.40;99.90
29803;DHT22;16702;50.898;4.662;2024-01-30T13:30:28;12.30;99.90
29803;DHT22;16702;50.898;4.662;2024-01-30T13:32:58;12.30;99.90
29803;DHT22;16702;50.898;4.662;2024-01-30T13:35:30;12.30;99.90
29803;DHT22;16702;50.898;4.662;2024-01-30T13:38:01;12.20;99.90
29803;DHT22;16702;50.898;4.662;2024-01-30T13:40:31;12.00;99.90
29803;DHT22;16702;50.898;4.662;2024-01-30T13:43:02;12.10;99.90
29803;DHT22;16702;50.898;4.662;2024-01-30T13:45:35;12.00;99.90
29803;DHT22;16702;50.898;4.662;2024-01-30T13:48:06;12.00;99.90
29803;DHT22;16702;50.898;4.662;2024-01-30T13:50:37;12.00;99.90
29803;DHT22;16702;50.898;4.662;2024-01-30T13:53:08;11.90;99.90
29803;DHT22;16702;50.898;4.662;2024-01-30T13:55:41;11.90;99.90
29803;DHT22;16702;50.898;4.662;2024-01-30T13:58:11;11.90;99.90
29803;DHT22;16702;50.898;4.662;2024-01-30T14:00:44;11.90;99.90
29803;DHT22;16702;50.898;4.662;2024-01-30T14:03:15;11.90;99.90
29803;DHT22;16702;50.898;4.662;2024-01-30T14:05:46;11.80;99.90
29803;DHT22;16702;50.898;4.662;2024-01-30T14:08:17;11.80;99.90
29803;DHT22;16702;50.898;4.662;2024-01-30T14:10:49;11.80;99.90
29803;DHT22;16702;50.898;4.662;2024-01-30T14:13:19;11.80;99.90
29803;DHT22;16702;50.898;4.662;2024-01-30T14:15:52;11.80;99.90
29803;DHT22;16702;50.898;4.662;2024-01-30T14:18:23;11.80;99.90
29803;DHT22;16702;50.898;4.662;2024-01-30T14:20:53;11.80;99.90
29803;DHT22;16702;50.898;4.662;2024-01-30T14:23:24;11.80;99.90
29803;DHT22;16702;50.898;4.662;2024-01-30T14:25:55;11.80;99.90
29803;DHT22;16702;50.898;4.662;2024-01-30T14:28:25;11.80;99.90
29803;DHT22;16702;50.898;4.662;2024-01-30T14:30:59;11.80;99.90
29803;DHT22;16702;50.898;4.662;2024-01-30T14:33:29;11.70;99.90
29803;DHT22;16702;50.898;4.662;2024-01-30T14:36:00;11.70;99.90
29803;DHT22;16702;50.898;4.662;2024-01-30T14:38:30;11.70;99.90
29803;DHT22;16702;50.898;4.662;2024-01-30T14:41:01;11.70;99.90
29803;DHT22;16702;50.898;4.662;2024-01-30T14:43:32;11.70;99.90
29803;DHT22;16702;50.898;4.662;2024-01-30T14:46:05;11.60;99.90
29803;DHT22;16702;50.898;4.662;2024-01-30T14:48:36;11.70;99.90
29803;DHT22;16702;50.898;4.662;2024-01-30T14:51:07;11.60;99.90
29803;DHT22;16702;50.898;4.662;2024-01-30T14:53:37;11.60;99.90
29803;DHT22;16702;50.898;4.662;2024-01-30T14:56:08;11.60;99.90
29803;DHT22;16702;50.898;4.662;2024-01-30T14:58:39;11.50;99.90
29803;DHT22;16702;50.898;4.662;2024-01-30T15:01:13;11.50;99.90
29803;DHT22;16702;50.898;4.662;2024-01-30T15:03:44;11.50;99.90
29803;DHT22;16702;50.898;4.662;2024-01-30T15:06:14;11.50;99.90
29803;DHT22;16702;50.898;4.662;2024-01-30T15:08:45;11.40;99.90
29803;DHT22;16702;50.898;4.662;2024-01-30T15:11:16;11.30;99.90
29803;DHT22;16702;50.898;4.662;2024-01-30T15:13:46;11.30;99.90
29803;DHT22;16702;50.898;4.662;2024-01-30T15:16:20;11.30;99.90
29803;DHT22;16702;50.898;4.662;2024-01-30T15:18:51;11.20;99.90
29803;DHT22;16702;50.898;4.662;2024-01-30T15:21:22;11.20;99.90
29803;DHT22;16702;50.898;4.662;2024-01-30T15:23:53;11.20;99.90
29803;DHT22;16702;50.898;4.662;2024-01-30T15:26:25;11.10;99.90
29803;DHT22;16702;50.898;4.662;2024-01-30T15:28:56;11.10;99.90
29803;DHT22;16702;50.898;4.662;2024-01-30T15:31:29;11.10;99.90
29803;DHT22;16702;50.898;4.662;2024-01-30T15:34:00;11.10;99.90
29803;DHT22;16702;50.898;4.662;2024-01-30T15:36:31;11.10;99.90
29803;DHT22;16702;50.898;4.662;2024-01-30T15:39:01;11.10;99.90
29803;DHT22;16702;50.898;4.662;2024-01-30T15:41:33;11.00;99.90
29803;DHT22;16702;50.898;4.662;2024-01-30T15:44:04;11.00;99.90
29803;DHT22;16702;50.898;4.662;2024-01-30T15:46:37;11.00;99.90
29803;DHT22;16702;50.898;4.662;2024-01-30T15:49:07;11.00;99.90
29803;DHT22;16702;50.898;4.662;2024-01-30T15:51:38;11.00;99.90
29803;DHT22;16702;50.898;4.662;2024-01-30T15:54:08;11.00;99.90
29803;DHT22;16702;50.898;4.662;2024-01-30T15:56:40;11.00;99.90